San Fernando, Spain
Current Conditions -  °F | °C
As of 3:00 PM on Thursday 23 Oct 2014 (Local Time) from LERT Reporting Station
Clear Clear  
Wind Chill: 84°   Ceiling: Unl
Heat Index: 84°   Visibility: 6mi
Dew Point: 50°   Wind: 9mph
Humidity: 30%   Direction: 40°NE
Pressure: 30.09"   Gusts: NA
Location:  36.48°N, 6.2°W
Report Text: LERT 231300Z 04008KT 360V080 CAVOK 29/10 Q1019 NOSIG
Loading
Personal Weather Stations






























Interactive Weather Map
Tropical Storm Tracking
New forecast layout! Learn more

10-Day Weather Forecast

Advertisements
Track Severe Weather on mobile